Time;durP1;ratioP1;P1;durP2;ratioP2;P2;SDS_P1;SDS_P2;PMS_P1;PMS_P2;Temp;Humidity;BMP_temperature;BMP_pressure;BME280_temperature;BME280_humidity;BME280_pressure;Samples;Min_cycle;Max_cycle;Signal;HPM_P1;HPM_P2
2022/07/27 00:00:08;;;;;;;2.15;1.35;;;22.40;1.00;;;;;;5092129;28;20024;-80
2022/07/27 00:02:33;;;;;;;2.85;1.20;;;22.30;1.00;;;;;;5091728;28;20415;-79
2022/07/27 00:04:59;;;;;;;4.18;1.30;;;22.30;1.00;;;;;;5092422;28;20039;-80
2022/07/27 00:07:24;;;;;;;4.93;1.10;;;22.30;1.00;;;;;;5092360;28;20468;-80
2022/07/27 00:09:50;;;;;;;4.30;1.48;;;22.20;1.00;;;;;;5092980;28;20085;-80
2022/07/27 00:12:16;;;;;;;3.50;1.23;;;22.30;1.00;;;;;;5092574;28;20027;-79
2022/07/27 00:14:41;;;;;;;2.85;1.38;;;22.30;1.00;;;;;;5092284;28;20027;-79
2022/07/27 00:17:07;;;;;;;1.92;1.25;;;22.10;1.00;;;;;;5092749;28;20028;-80
2022/07/27 00:19:32;;;;;;;2.15;1.20;;;22.10;1.00;;;;;;5092116;28;20032;-79
2022/07/27 00:21:58;;;;;;;3.35;1.23;;;22.30;1.00;;;;;;5094688;28;20024;-79
2022/07/27 00:24:24;;;;;;;1.80;1.25;;;22.20;1.00;;;;;;5092154;28;20027;-79
2022/07/27 00:26:50;;;;;;;2.70;1.25;;;22.10;1.00;;;;;;5092183;28;20086;-80
2022/07/27 00:29:16;;;;;;;2.47;1.42;;;22.10;1.00;;;;;;5092098;28;20040;-79
2022/07/27 00:31:41;;;;;;;2.65;1.20;;;22.10;1.00;;;;;;5090740;28;20048;-79
2022/07/27 00:34:07;;;;;;;2.78;1.40;;;21.90;1.00;;;;;;5094066;28;20496;-79
2022/07/27 00:36:33;;;;;;;1.85;1.13;;;21.90;1.00;;;;;;5092736;28;20032;-79
2022/07/27 00:38:59;;;;;;;2.00;1.40;;;21.70;1.00;;;;;;5091880;28;20027;-79
2022/07/27 00:41:24;;;;;;;1.88;1.23;;;21.70;1.00;;;;;;5090988;28;20081;-80
2022/07/27 00:43:58;;;;;;;2.78;1.27;;;21.60;1.00;;;;;;5092250;28;20549;-79
2022/07/27 00:46:25;;;;;;;2.72;1.30;;;21.70;1.00;;;;;;5091841;28;20028;-79
2022/07/27 00:48:51;;;;;;;2.78;1.30;;;21.60;1.00;;;;;;5093964;28;20024;-80
2022/07/27 00:51:18;;;;;;;3.38;1.80;;;21.60;1.00;;;;;;5091766;28;20036;-79
2022/07/27 00:53:45;;;;;;;2.20;1.10;;;21.60;1.00;;;;;;5091978;28;20032;-79
2022/07/27 00:56:11;;;;;;;2.80;1.10;;;21.60;1.00;;;;;;5091765;28;20514;-80
2022/07/27 00:58:37;;;;;;;2.38;1.20;;;21.70;1.00;;;;;;5091833;28;20060;-79
2022/07/27 01:01:04;;;;;;;2.35;1.40;;;21.60;1.00;;;;;;5089448;28;20025;-79
2022/07/27 01:03:30;;;;;;;2.88;1.30;;;21.80;1.00;;;;;;5091472;28;20036;-79
2022/07/27 01:05:57;;;;;;;3.30;1.25;;;21.70;1.00;;;;;;5091522;28;20020;-79
2022/07/27 01:08:22;;;;;;;2.50;1.30;;;21.70;1.00;;;;;;5091718;28;20024;-80
2022/07/27 01:10:50;;;;;;;3.78;1.20;;;21.50;1.00;;;;;;5089809;28;20033;-79
2022/07/27 01:13:16;;;;;;;5.03;1.40;;;21.40;1.00;;;;;;5092432;28;20027;-79
2022/07/27 01:15:42;;;;;;;2.40;1.45;;;21.50;1.00;;;;;;5092339;28;20043;-80
2022/07/27 01:18:24;;;;;;;2.55;1.17;;;21.50;1.00;;;;;;5091158;28;20488;-79
2022/07/27 01:20:49;;;;;;;4.20;1.33;;;21.50;1.00;;;;;;5089963;28;20059;-79
2022/07/27 01:23:15;;;;;;;3.47;1.40;;;21.40;1.00;;;;;;5091316;28;20492;-79
2022/07/27 01:25:41;;;;;;;3.00;1.25;;;21.40;1.00;;;;;;5091179;28;20038;-79
2022/07/27 01:28:06;;;;;;;3.28;1.60;;;21.40;1.00;;;;;;5092825;28;20017;-79
2022/07/27 01:30:34;;;;;;;6.20;1.85;;;21.40;1.00;;;;;;5090965;28;20793;-79
2022/07/27 01:33:01;;;;;;;2.85;1.27;;;21.30;1.00;;;;;;5090910;28;20389;-79
2022/07/27 01:35:28;;;;;;;1.25;1.13;;;21.30;1.00;;;;;;5072833;28;20388;-80
2022/07/27 01:37:54;;;;;;;1.95;1.40;;;21.30;1.00;;;;;;5090852;28;20032;-80
2022/07/27 01:40:21;;;;;;;2.22;1.50;;;21.20;1.00;;;;;;5091519;28;20028;-79
2022/07/27 01:42:46;;;;;;;2.83;1.48;;;21.30;1.00;;;;;;5090864;28;20110;-79
2022/07/27 01:45:12;;;;;;;4.10;1.60;;;21.20;1.00;;;;;;5090300;28;20560;-79
2022/07/27 01:47:37;;;;;;;2.47;1.40;;;21.30;1.00;;;;;;5090664;28;20028;-79
2022/07/27 01:50:04;;;;;;;3.22;1.70;;;21.30;1.00;;;;;;5089057;28;20408;-79
2022/07/27 01:52:30;;;;;;;3.08;1.58;;;21.30;1.00;;;;;;5090667;28;20036;-80
2022/07/27 01:54:55;;;;;;;2.60;1.65;;;21.40;1.00;;;;;;5092962;28;20027;-79
2022/07/27 01:57:21;;;;;;;2.60;1.60;;;21.60;1.00;;;;;;5088438;28;20066;-80
2022/07/27 01:59:46;;;;;;;2.63;1.80;;;21.70;1.00;;;;;;5088739;28;20028;-79
2022/07/27 02:02:14;;;;;;;2.80;1.30;;;21.60;1.00;;;;;;5090538;28;20020;-80
2022/07/27 02:04:43;;;;;;;3.65;1.33;;;21.50;1.00;;;;;;5090613;28;20021;-79
2022/07/27 02:07:08;;;;;;;1.38;1.20;;;21.40;1.00;;;;;;5091989;28;20020;-79
2022/07/27 02:09:34;;;;;;;3.42;1.58;;;21.20;1.00;;;;;;5090933;28;20035;-79
2022/07/27 02:14:44;;;;;;;3.10;1.65;;;21.10;1.00;;;;;;5089756;28;20032;-79
2022/07/27 02:17:10;;;;;;;5.82;1.25;;;21.00;1.00;;;;;;5090195;28;20111;-80
2022/07/27 02:19:35;;;;;;;1.48;1.30;;;21.10;1.00;;;;;;5090454;28;20024;-79
2022/07/27 02:22:01;;;;;;;4.13;1.50;;;21.00;1.00;;;;;;5091622;28;20027;-80
2022/07/27 02:24:26;;;;;;;3.45;1.58;;;20.70;1.00;;;;;;5090043;28;20077;-79
2022/07/27 02:26:52;;;;;;;1.65;1.23;;;20.60;1.00;;;;;;5089914;28;20052;-79
2022/07/27 02:29:18;;;;;;;2.85;1.50;;;20.60;1.00;;;;;;5089756;28;20048;-79
2022/07/27 02:31:43;;;;;;;2.47;1.55;;;20.70;1.00;;;;;;5090360;28;20054;-80
2022/07/27 02:34:09;;;;;;;2.28;1.50;;;20.80;1.00;;;;;;5091608;28;20095;-80
2022/07/27 02:36:35;;;;;;;3.60;1.67;;;20.90;1.00;;;;;;5089566;28;20028;-79
2022/07/27 02:39:00;;;;;;;2.53;1.60;;;20.80;1.00;;;;;;5088544;28;20028;-80
2022/07/27 02:41:26;;;;;;;4.32;1.30;;;20.70;1.00;;;;;;5090187;28;20035;-80
2022/07/27 02:43:52;;;;;;;3.95;1.63;;;20.70;1.00;;;;;;5090038;28;20089;-80
2022/07/27 02:46:17;;;;;;;2.15;1.50;;;20.50;1.00;;;;;;5090788;28;20024;-80
2022/07/27 02:48:43;;;;;;;3.63;1.70;;;20.50;1.00;;;;;;5091364;28;20464;-80
2022/07/27 02:51:09;;;;;;;3.63;1.20;;;20.40;1.00;;;;;;5089805;28;20040;-80
2022/07/27 02:53:34;;;;;;;2.88;1.50;;;20.50;1.00;;;;;;5089965;28;20035;-80
2022/07/27 02:56:00;;;;;;;4.13;1.30;;;20.40;1.00;;;;;;5089727;28;20039;-80
2022/07/27 02:58:26;;;;;;;3.00;1.40;;;20.20;1.00;;;;;;5089769;28;20040;-80
2022/07/27 03:00:51;;;;;;;3.75;1.50;;;20.40;1.00;;;;;;5092363;28;20476;-80
2022/07/27 03:03:17;;;;;;;3.90;1.73;;;20.20;1.00;;;;;;5089486;28;20468;-80
2022/07/27 03:05:43;;;;;;;3.58;1.63;;;19.90;1.00;;;;;;5089664;28;20480;-79
2022/07/27 03:08:09;;;;;;;2.28;1.33;;;19.80;1.00;;;;;;5088593;28;20023;-80
2022/07/27 03:10:34;;;;;;;2.80;1.40;;;19.60;1.00;;;;;;5073978;28;20117;-80
2022/07/27 03:13:00;;;;;;;3.63;1.20;;;19.70;1.00;;;;;;5091684;28;20032;-80
2022/07/27 03:15:28;;;;;;;3.47;1.58;;;19.70;1.00;;;;;;5071618;28;20059;-79
2022/07/27 03:17:54;;;;;;;2.70;1.52;;;19.70;1.00;;;;;;5089491;28;20392;-80
2022/07/27 03:20:19;;;;;;;2.13;1.33;;;19.50;1.00;;;;;;5071453;28;20115;-80
2022/07/27 03:22:45;;;;;;;2.65;1.48;;;19.50;1.00;;;;;;5088388;28;20052;-80
2022/07/27 03:25:11;;;;;;;5.63;2.03;;;19.40;1.00;;;;;;5090812;28;20460;-79
2022/07/27 03:27:37;;;;;;;2.80;1.35;;;19.40;1.00;;;;;;5089929;28;20103;-80
2022/07/27 03:30:04;;;;;;;2.65;1.48;;;19.30;1.00;;;;;;5089123;28;20494;-80
2022/07/27 03:32:29;;;;;;;5.13;1.70;;;19.30;1.00;;;;;;5090461;28;20024;-80
2022/07/27 03:34:55;;;;;;;2.50;1.42;;;19.30;1.00;;;;;;5093161;28;20024;-80
2022/07/27 03:37:20;;;;;;;4.38;1.70;;;19.30;1.00;;;;;;5093394;28;20025;-80
2022/07/27 03:39:46;;;;;;;3.25;1.58;;;19.30;1.00;;;;;;5095299;28;20028;-79
2022/07/27 03:42:12;;;;;;;3.15;1.30;;;19.20;1.00;;;;;;5092623;28;20064;-80
2022/07/27 03:44:38;;;;;;;4.57;1.50;;;19.30;1.00;;;;;;5093056;28;20111;-79
2022/07/27 03:47:04;;;;;;;2.75;1.80;;;19.40;1.00;;;;;;5091518;28;20024;-80
2022/07/27 03:49:30;;;;;;;2.85;1.50;;;19.40;1.00;;;;;;5093420;28;20066;-80
2022/07/27 03:51:56;;;;;;;3.08;1.77;;;19.40;1.00;;;;;;5094891;28;20047;-81
2022/07/27 03:54:22;;;;;;;3.90;1.60;;;19.50;1.00;;;;;;5092282;28;20385;-80
2022/07/27 03:56:47;;;;;;;2.55;1.50;;;19.60;1.00;;;;;;5092731;28;20552;-80
2022/07/27 03:59:13;;;;;;;3.35;1.52;;;19.70;1.00;;;;;;5092626;28;20027;-80
2022/07/27 04:01:38;;;;;;;4.13;1.55;;;19.80;1.00;;;;;;5092635;28;20054;-80
2022/07/27 04:04:04;;;;;;;2.63;1.55;;;19.80;1.00;;;;;;5094774;28;20392;-80
2022/07/27 04:06:30;;;;;;;4.20;1.50;;;19.50;1.00;;;;;;5092448;28;20085;-80
2022/07/27 04:08:55;;;;;;;3.55;1.50;;;19.50;1.00;;;;;;5092508;28;20027;-80
2022/07/27 04:11:21;;;;;;;2.70;1.83;;;19.30;1.00;;;;;;5092154;28;20028;-80
2022/07/27 04:13:50;;;;;;;2.47;1.55;;;19.10;1.00;;;;;;5092738;28;20545;-80
2022/07/27 04:16:15;;;;;;;3.45;1.63;;;19.20;1.00;;;;;;5093204;28;20024;-80
2022/07/27 04:18:41;;;;;;;2.50;1.60;;;19.10;1.00;;;;;;5093833;28;20542;-80
2022/07/27 04:21:07;;;;;;;5.68;2.00;;;19.10;1.00;;;;;;5092481;28;20388;-80
2022/07/27 04:23:33;;;;;;;6.40;2.00;;;19.20;1.00;;;;;;5091096;28;20020;-80
2022/07/27 04:25:59;;;;;;;5.68;1.88;;;19.20;1.00;;;;;;5090980;28;20020;-80
2022/07/27 04:28:25;;;;;;;4.28;1.50;;;19.10;1.00;;;;;;5091999;28;20084;-80
2022/07/27 04:30:50;;;;;;;5.57;1.90;;;19.20;1.00;;;;;;5094739;28;20063;-80
2022/07/27 04:33:16;;;;;;;4.35;1.55;;;19.30;1.00;;;;;;5092637;28;20020;-80
2022/07/27 04:35:42;;;;;;;4.25;1.60;;;19.40;1.00;;;;;;5092426;28;20447;-80
2022/07/27 04:38:07;;;;;;;3.38;1.80;;;19.60;1.00;;;;;;5092461;28;20407;-80
2022/07/27 04:40:33;;;;;;;5.70;1.90;;;19.70;1.00;;;;;;5092124;28;20039;-80
2022/07/27 04:43:00;;;;;;;3.63;1.60;;;19.60;1.00;;;;;;5094510;28;20020;-80
2022/07/27 04:45:26;;;;;;;3.78;1.75;;;19.50;1.00;;;;;;5091505;28;20020;-80
2022/07/27 04:47:52;;;;;;;4.03;1.90;;;19.30;1.00;;;;;;5091914;28;20086;-80
2022/07/27 04:50:17;;;;;;;5.80;1.90;;;19.40;1.00;;;;;;5092012;28;20500;-80
2022/07/27 04:52:44;;;;;;;5.25;1.80;;;19.40;1.00;;;;;;5091979;28;20510;-80
2022/07/27 04:55:09;;;;;;;2.22;1.70;;;19.50;1.00;;;;;;5093029;28;20021;-80
2022/07/27 04:57:35;;;;;;;3.83;1.65;;;19.60;1.00;;;;;;5092795;28;20499;-80
2022/07/27 05:00:00;;;;;;;5.00;1.80;;;19.50;1.00;;;;;;5092010;28;20511;-80
2022/07/27 05:02:27;;;;;;;4.15;1.88;;;19.60;1.00;;;;;;5091951;28;20036;-80
2022/07/27 05:04:53;;;;;;;3.40;1.85;;;19.60;1.00;;;;;;5090443;28;20095;-80
2022/07/27 05:07:19;;;;;;;4.55;1.80;;;19.60;1.00;;;;;;5091848;28;20040;-77
2022/07/27 05:09:45;;;;;;;3.53;1.80;;;19.60;1.00;;;;;;5093774;28;20047;-80
2022/07/27 05:12:11;;;;;;;4.47;2.00;;;19.90;1.00;;;;;;5091872;28;20016;-80
2022/07/27 05:14:37;;;;;;;2.83;1.60;;;19.80;1.00;;;;;;5092044;28;20028;-80
2022/07/27 05:17:04;;;;;;;3.38;2.10;;;19.80;1.00;;;;;;5091915;28;20111;-80
2022/07/27 05:19:31;;;;;;;3.10;1.90;;;20.00;1.00;;;;;;5091662;28;20074;-80
2022/07/27 05:21:57;;;;;;;4.93;2.00;;;19.70;1.00;;;;;;5093340;28;20028;-80
2022/07/27 05:24:23;;;;;;;3.80;2.20;;;19.90;1.00;;;;;;5091490;28;20504;-80
2022/07/27 05:26:48;;;;;;;3.92;2.05;;;19.60;1.00;;;;;;5091189;28;20069;-80
2022/07/27 05:29:14;;;;;;;3.35;1.80;;;19.40;1.00;;;;;;5091458;28;20048;-80
2022/07/27 05:31:39;;;;;;;4.15;1.80;;;19.30;1.00;;;;;;5091587;28;20036;-80
2022/07/27 05:34:05;;;;;;;5.53;1.52;;;19.50;1.00;;;;;;5093520;28;20157;-80
2022/07/27 05:36:31;;;;;;;5.85;2.05;;;19.50;1.00;;;;;;5089732;28;20032;-80
2022/07/27 05:38:57;;;;;;;3.97;1.98;;;19.40;1.00;;;;;;5091101;28;20054;-80
2022/07/27 05:41:24;;;;;;;2.70;1.80;;;19.30;1.00;;;;;;5091109;28;20036;-80
2022/07/27 05:43:49;;;;;;;2.90;1.63;;;19.30;1.00;;;;;;5089810;28;20118;-80
2022/07/27 05:46:15;;;;;;;2.10;1.58;;;19.20;1.00;;;;;;5092056;28;20492;-80
2022/07/27 05:48:42;;;;;;;6.50;1.88;;;19.30;1.00;;;;;;5092443;28;20032;-80
2022/07/27 05:51:07;;;;;;;3.70;1.52;;;19.20;1.00;;;;;;5090603;28;20497;-80
2022/07/27 05:53:34;;;;;;;3.05;1.80;;;19.30;1.00;;;;;;5090958;28;20027;-80
2022/07/27 05:55:59;;;;;;;5.05;2.05;;;19.30;1.00;;;;;;5089904;28;20548;-81
2022/07/27 05:58:26;;;;;;;6.88;2.08;;;19.20;1.00;;;;;;5091976;28;20070;-80
2022/07/27 06:00:52;;;;;;;6.18;1.92;;;19.30;1.00;;;;;;5092880;28;20024;-82
2022/07/27 06:03:18;;;;;;;3.63;1.92;;;19.30;1.00;;;;;;5090439;28;20020;-82
2022/07/27 06:05:43;;;;;;;4.00;1.90;;;19.50;1.00;;;;;;5091353;28;20050;-81
2022/07/27 06:08:09;;;;;;;5.43;2.00;;;19.50;1.00;;;;;;5090650;28;20020;-82
2022/07/27 06:10:36;;;;;;;4.43;1.77;;;19.60;1.00;;;;;;5092241;28;20036;-82
2022/07/27 06:13:06;;;;;;;3.63;1.88;;;19.50;1.00;;;;;;5088550;28;20025;-81
2022/07/27 06:15:33;;;;;;;3.45;1.75;;;19.60;1.00;;;;;;5091452;28;20031;-82
2022/07/27 06:17:59;;;;;;;6.75;1.67;;;19.80;1.00;;;;;;5093217;28;20024;-82
2022/07/27 06:20:26;;;;;;;5.88;2.10;;;19.70;1.00;;;;;;5090929;28;20062;-82
2022/07/27 06:22:58;;;;;;;5.10;2.30;;;19.80;1.00;;;;;;5089082;28;20029;-83
2022/07/27 06:25:25;;;;;;;4.10;1.90;;;19.70;1.00;;;;;;5090452;28;20399;-83
2022/07/27 06:27:52;;;;;;;4.65;2.53;;;19.90;1.00;;;;;;5096237;28;20023;-82
2022/07/27 06:30:19;;;;;;;4.10;1.80;;;20.00;1.00;;;;;;5093735;28;20048;-82
2022/07/27 06:32:45;;;;;;;2.75;1.88;;;20.30;1.00;;;;;;5089988;28;20027;-82
2022/07/27 06:35:11;;;;;;;3.75;1.83;;;20.10;1.00;;;;;;5091711;28;20028;-82
2022/07/27 06:37:42;;;;;;;3.22;1.80;;;20.10;1.00;;;;;;5090215;28;20492;-81
2022/07/27 06:40:12;;;;;;;2.83;1.70;;;20.20;1.00;;;;;;5105685;28;20027;-81
2022/07/27 06:42:38;;;;;;;2.53;1.75;;;19.80;1.00;;;;;;5089997;28;20047;-81
2022/07/27 06:45:05;;;;;;;2.67;1.73;;;20.00;1.00;;;;;;5093472;28;20467;-81
2022/07/27 06:47:30;;;;;;;5.07;1.92;;;20.20;1.00;;;;;;5096698;28;20035;-82
2022/07/27 06:49:56;;;;;;;3.03;1.80;;;20.50;1.00;;;;;;5089878;28;20020;-82
2022/07/27 06:52:21;;;;;;;3.95;1.85;;;20.30;1.00;;;;;;5090174;28;20549;-82
2022/07/27 06:54:47;;;;;;;3.92;1.90;;;20.50;1.00;;;;;;5092308;28;20017;-82
2022/07/27 06:57:14;;;;;;;7.47;1.70;;;20.40;1.00;;;;;;5090048;28;20059;-82
2022/07/27 06:59:39;;;;;;;4.65;1.92;;;20.40;1.00;;;;;;5090033;28;20067;-82
2022/07/27 07:02:05;;;;;;;1.92;1.58;;;20.60;1.00;;;;;;5088797;28;20052;-82
2022/07/27 07:04:32;;;;;;;2.33;1.50;;;20.90;1.00;;;;;;5089771;28;20024;-82
2022/07/27 07:06:59;;;;;;;3.58;1.65;;;21.00;1.00;;;;;;5092082;28;20028;-82
2022/07/27 07:09:27;;;;;;;3.22;2.03;;;21.00;1.00;;;;;;5093898;28;20016;-82
2022/07/27 07:11:53;;;;;;;6.22;1.88;;;20.80;1.00;;;;;;5093978;28;20135;-82
2022/07/27 07:14:18;;;;;;;5.47;1.77;;;20.90;1.00;;;;;;5094125;28;20103;-82
2022/07/27 07:16:44;;;;;;;2.10;1.77;;;20.90;1.00;;;;;;5094125;28;20123;-81
2022/07/27 07:19:11;;;;;;;4.88;1.73;;;21.20;1.00;;;;;;5094982;28;20110;-82
2022/07/27 07:21:36;;;;;;;3.42;1.70;;;21.40;1.00;;;;;;5094550;28;20127;-81
2022/07/27 07:24:02;;;;;;;2.13;1.90;;;21.20;1.00;;;;;;5093813;28;20040;-82
2022/07/27 07:26:28;;;;;;;3.92;2.00;;;21.50;1.00;;;;;;5093790;28;20055;-82
2022/07/27 07:28:54;;;;;;;4.90;1.60;;;21.40;1.00;;;;;;5093684;28;20036;-82
2022/07/27 07:31:20;;;;;;;3.25;1.70;;;21.50;1.00;;;;;;5094121;28;20067;-82
2022/07/27 07:33:46;;;;;;;4.93;1.65;;;21.20;1.00;;;;;;5095463;28;20448;-82
2022/07/27 07:36:11;;;;;;;4.30;1.75;;;21.40;1.00;;;;;;5093610;28;20036;-82
2022/07/27 07:38:37;;;;;;;2.80;1.67;;;21.40;1.00;;;;;;5093802;28;20032;-82
2022/07/27 07:41:03;;;;;;;5.28;1.77;;;21.60;1.00;;;;;;5092040;28;20032;-82
2022/07/27 07:43:28;;;;;;;3.47;1.45;;;21.70;1.00;;;;;;5093582;28;20105;-82
2022/07/27 07:45:54;;;;;;;3.05;1.60;;;21.90;1.00;;;;;;5095684;28;20024;-82
2022/07/27 07:48:20;;;;;;;5.60;1.70;;;22.10;1.00;;;;;;5093123;28;20488;-82
2022/07/27 07:50:48;;;;;;;6.38;2.00;;;22.10;1.00;;;;;;5093452;28;20044;-82
2022/07/27 07:53:14;;;;;;;4.93;1.70;;;22.20;1.00;;;;;;5093305;28;20380;-82
2022/07/27 07:55:39;;;;;;;3.95;1.70;;;22.30;1.00;;;;;;5093297;28;20300;-82
2022/07/27 07:58:05;;;;;;;4.85;1.52;;;22.50;1.00;;;;;;5095402;28;20089;-82
2022/07/27 08:00:31;;;;;;;2.72;1.55;;;22.30;1.00;;;;;;5093160;28;20108;-82
2022/07/27 08:02:57;;;;;;;3.95;1.67;;;22.30;1.00;;;;;;5092628;28;20012;-82
2022/07/27 08:05:23;;;;;;;4.72;1.77;;;22.20;1.00;;;;;;5092965;28;20024;-82
2022/07/27 08:07:50;;;;;;;3.67;1.80;;;22.40;1.00;;;;;;5093072;28;20103;-79
2022/07/27 08:10:18;;;;;;;2.72;1.70;;;22.40;1.00;;;;;;5093745;28;20060;-79
2022/07/27 08:12:48;;;;;;;3.53;1.80;;;22.60;1.00;;;;;;5094806;28;20488;-79
2022/07/27 08:15:16;;;;;;;6.07;1.80;;;22.70;1.00;;;;;;5092749;28;20107;-79
2022/07/27 08:17:42;;;;;;;3.97;1.70;;;22.80;1.00;;;;;;5092393;28;20491;-79
2022/07/27 08:20:09;;;;;;;1.60;1.50;;;22.80;1.00;;;;;;5090281;28;20138;-79
2022/07/27 08:22:36;;;;;;;1.90;1.33;;;23.10;1.00;;;;;;5076886;28;20017;-79
2022/07/27 08:25:03;;;;;;;1.42;1.20;;;23.10;1.00;;;;;;5094740;28;20500;-79
2022/07/27 08:27:28;;;;;;;2.97;1.60;;;23.20;1.00;;;;;;5092618;28;20024;-79
2022/07/27 08:29:54;;;;;;;3.47;1.30;;;23.40;1.00;;;;;;5092387;28;20074;-79
2022/07/27 08:32:20;;;;;;;3.28;1.52;;;23.50;1.00;;;;;;5092100;28;20028;-79
2022/07/27 08:34:46;;;;;;;2.85;1.70;;;23.40;1.00;;;;;;5092391;28;20020;-80
2022/07/27 08:37:11;;;;;;;5.82;1.45;;;23.50;1.00;;;;;;5093839;28;20032;-79
2022/07/27 08:39:37;;;;;;;5.10;1.40;;;23.50;1.00;;;;;;5092998;28;20024;-79
2022/07/27 08:42:08;;;;;;;4.90;1.63;;;23.70;1.00;;;;;;5092278;28;20051;-79
2022/07/27 08:44:34;;;;;;;2.95;1.70;;;23.80;1.00;;;;;;5092192;28;20020;-79
2022/07/27 08:47:01;;;;;;;2.15;1.40;;;23.90;1.00;;;;;;5073840;28;20031;-79
2022/07/27 08:49:29;;;;;;;2.97;1.52;;;23.90;1.00;;;;;;5092140;28;20501;-78
2022/07/27 08:51:55;;;;;;;2.65;1.40;;;24.00;1.00;;;;;;5094339;28;20038;-80
2022/07/27 08:54:20;;;;;;;5.03;1.50;;;24.10;1.00;;;;;;5091861;28;20028;-79
2022/07/27 08:56:46;;;;;;;3.75;1.60;;;24.10;1.00;;;;;;5091965;28;20485;-79
2022/07/27 08:59:12;;;;;;;7.18;2.05;;;24.20;1.00;;;;;;5090608;28;20055;-79
2022/07/27 09:01:39;;;;;;;3.35;1.63;;;24.30;1.00;;;;;;5091682;28;20029;-79
2022/07/27 09:04:08;;;;;;;2.28;1.50;;;24.50;1.00;;;;;;5075835;28;20381;-79
2022/07/27 09:06:50;;;;;;;3.53;1.40;;;24.70;1.00;;;;;;5092532;28;20500;-79
2022/07/27 09:09:18;;;;;;;2.00;1.35;;;24.80;1.00;;;;;;5091856;28;20074;-80
2022/07/27 09:12:02;;;;;;;3.58;1.58;;;24.80;1.00;;;;;;5091955;28;20039;-79
2022/07/27 09:14:32;;;;;;;3.78;1.38;;;24.90;1.00;;;;;;5091389;28;20487;-79
2022/07/27 09:16:58;;;;;;;4.47;1.70;;;25.10;1.00;;;;;;5091796;28;20046;-79
2022/07/27 09:19:23;;;;;;;3.92;1.63;;;25.10;1.00;;;;;;5091858;28;20400;-79
2022/07/27 09:21:49;;;;;;;1.85;1.55;;;25.00;1.00;;;;;;5093913;28;20023;-80
2022/07/27 09:24:15;;;;;;;2.40;1.40;;;25.10;1.00;;;;;;5091526;28;20039;-79
2022/07/27 09:26:42;;;;;;;2.45;1.58;;;25.10;1.00;;;;;;5091465;28;20050;-79
2022/07/27 09:29:13;;;;;;;3.03;1.80;;;25.20;1.00;;;;;;5090884;28;20089;-79
2022/07/27 09:31:48;;;;;;;2.95;1.50;;;25.30;1.00;;;;;;5075828;28;20480;-79
2022/07/27 09:34:31;;;;;;;3.40;1.77;;;25.20;1.00;;;;;;5092753;28;20020;-80
2022/07/27 09:36:57;;;;;;;3.80;1.48;;;25.30;1.00;;;;;;5092689;28;20020;-79
2022/07/27 09:39:25;;;;;;;3.72;1.63;;;25.40;1.00;;;;;;5089957;28;20032;-80
2022/07/27 09:41:58;;;;;;;2.95;1.25;;;25.60;1.00;;;;;;5091348;28;20035;-80
2022/07/27 09:44:36;;;;;;;3.80;1.55;;;25.40;1.00;;;;;;5090920;28;20040;-80
2022/07/27 09:47:25;;;;;;;4.30;1.30;;;25.40;1.00;;;;;;5091213;28;20035;-80
2022/07/27 09:49:51;;;;;;;4.90;1.60;;;25.60;1.00;;;;;;5077151;28;20028;-80
2022/07/27 09:52:25;;;;;;;2.05;1.30;;;25.50;1.00;;;;;;5091990;28;20046;-79
2022/07/27 09:54:50;;;;;;;3.80;1.42;;;25.70;1.00;;;;;;5091490;28;20024;-79
2022/07/27 09:57:17;;;;;;;4.68;1.40;;;25.90;1.00;;;;;;5090984;28;20028;-80
2022/07/27 09:59:43;;;;;;;2.05;1.27;;;26.00;1.00;;;;;;5090398;28;20032;-79
2022/07/27 10:02:11;;;;;;;2.67;1.20;;;26.00;1.00;;;;;;5090983;28;20103;-80
2022/07/27 10:04:37;;;;;;;1.35;1.13;;;26.00;1.00;;;;;;5075205;28;20032;-79
2022/07/27 10:07:03;;;;;;;5.18;1.42;;;26.00;1.00;;;;;;5088618;28;20026;-79
2022/07/27 10:09:30;;;;;;;2.67;1.25;;;25.80;1.00;;;;;;5090765;28;20122;-80
2022/07/27 10:11:57;;;;;;;7.50;1.38;;;25.70;1.00;;;;;;5090641;28;20042;-80
2022/07/27 10:14:24;;;;;;;3.17;1.20;;;25.90;1.00;;;;;;5090519;28;20050;-80
2022/07/27 10:16:52;;;;;;;1.70;1.20;;;26.10;1.00;;;;;;5089557;28;20032;-80
2022/07/27 10:19:24;;;;;;;2.33;1.15;;;25.90;1.00;;;;;;5091259;28;20492;-79
2022/07/27 10:21:50;;;;;;;3.08;1.20;;;25.80;1.00;;;;;;5090879;28;20028;-80
2022/07/27 10:24:36;;;;;;;3.85;1.35;;;26.10;1.00;;;;;;5090456;28;20540;-80
2022/07/27 10:27:26;;;;;;;2.63;1.20;;;26.30;1.00;;;;;;5089821;28;20012;-79
2022/07/27 10:29:54;;;;;;;3.25;1.10;;;26.30;1.00;;;;;;5090235;28;20048;-79
2022/07/27 10:32:32;;;;;;;4.53;1.40;;;26.30;1.00;;;;;;5090304;28;20562;-80
2022/07/27 10:35:00;;;;;;;4.93;1.38;;;26.30;1.00;;;;;;5090453;28;20047;-80
2022/07/27 10:37:31;;;;;;;2.83;1.48;;;26.10;1.00;;;;;;5090477;28;20532;-80
2022/07/27 10:42:50;;;;;;;2.35;1.23;;;26.80;1.00;;;;;;5089714;28;20047;-80
2022/07/27 10:45:17;;;;;;;3.15;1.52;;;26.90;1.00;;;;;;5090142;28;20099;-79
2022/07/27 10:47:49;;;;;;;4.20;1.40;;;26.80;1.00;;;;;;5090508;28;20024;-79
2022/07/27 10:50:14;;;;;;;5.25;1.83;;;26.40;1.00;;;;;;5090154;28;20040;-79
2022/07/27 10:52:50;;;;;;;2.22;1.60;;;26.50;1.00;;;;;;5090476;28;20414;-79
2022/07/27 10:55:28;;;;;;;2.72;1.30;;;26.90;1.00;;;;;;5091553;28;20020;-80
2022/07/27 10:58:20;;;;;;;1.67;1.30;;;27.00;1.00;;;;;;5091053;28;20024;-79
2022/07/27 11:00:48;;;;;;;5.18;1.60;;;26.90;1.00;;;;;;5016578;28;20042;-80
2022/07/27 11:03:31;;;;;;;3.10;1.38;;;26.90;1.00;;;;;;5018182;28;20038;-80
2022/07/27 11:06:01;;;;;;;4.05;1.40;;;26.70;1.00;;;;;;5018354;28;20041;-80
2022/07/27 11:08:30;;;;;;;1.63;1.25;;;26.60;1.00;;;;;;5017790;28;20057;-80
2022/07/27 11:10:57;;;;;;;1.88;1.20;;;26.90;1.00;;;;;;5015797;28;20042;-80
2022/07/27 11:13:24;;;;;;;5.57;1.40;;;26.90;1.00;;;;;;5013281;28;20026;-80
2022/07/27 11:16:01;;;;;;;2.63;1.23;;;27.00;1.00;;;;;;5016309;28;20121;-79
2022/07/27 11:18:27;;;;;;;2.13;1.20;;;27.20;1.00;;;;;;5018011;28;20093;-80
2022/07/27 11:21:23;;;;;;;4.15;1.27;;;27.00;1.00;;;;;;5017452;28;20037;-80
2022/07/27 11:23:52;;;;;;;3.88;1.45;;;27.40;1.00;;;;;;5017986;28;20033;-80
2022/07/27 11:26:18;;;;;;;2.55;1.40;;;27.50;1.00;;;;;;5017545;28;20108;-80
2022/07/27 11:28:44;;;;;;;3.53;1.40;;;28.00;1.00;;;;;;5007525;28;20052;-80
2022/07/27 11:31:12;;;;;;;2.90;1.30;;;28.40;1.00;;;;;;4993944;28;20051;-80
2022/07/27 11:33:53;;;;;;;4.28;1.30;;;28.70;1.00;;;;;;5009342;28;20037;-80
2022/07/27 11:36:19;;;;;;;3.35;1.40;;;30.30;1.00;;;;;;5000032;28;20061;-80
2022/07/27 11:38:53;;;;;;;3.00;1.30;;;32.90;1.00;;;;;;5054457;28;20033;-80
2022/07/27 11:41:27;;;;;;;1.85;1.20;;;34.80;1.00;;;;;;5065216;28;20028;-80
2022/07/27 11:43:54;;;;;;;1.92;1.35;;;36.20;1.00;;;;;;5067509;28;20025;-80
2022/07/27 11:46:28;;;;;;;3.05;1.33;;;36.50;1.00;;;;;;5068069;28;20043;-80
2022/07/27 11:49:05;;;;;;;2.83;1.30;;;37.50;1.00;;;;;;5056044;28;20482;-80
2022/07/27 11:51:33;;;;;;;4.38;1.42;;;38.00;1.00;;;;;;5056582;28;20032;-80
2022/07/27 11:54:01;;;;;;;2.67;1.67;;;37.90;1.00;;;;;;5056491;28;20029;-80
2022/07/27 11:56:30;;;;;;;3.55;1.40;;;36.80;1.00;;;;;;5060270;28;20031;-80
2022/07/27 11:59:03;;;;;;;3.90;1.60;;;36.20;1.00;;;;;;5058354;28;20488;-80
2022/07/27 12:01:35;;;;;;;1.58;1.35;;;37.00;1.00;;;;;;5056811;28;20032;-80
2022/07/27 12:04:28;;;;;;;3.90;1.55;;;38.10;1.00;;;;;;5059263;28;20586;-80
2022/07/27 12:07:05;;;;;;;1.77;1.30;;;38.80;1.00;;;;;;5059433;28;20112;-81
2022/07/27 12:09:35;;;;;;;2.67;1.48;;;38.30;1.00;;;;;;5059689;28;20392;-80
2022/07/27 12:12:21;;;;;;;1.98;1.30;;;38.10;1.00;;;;;;5059949;28;20501;-81
2022/07/27 12:14:49;;;;;;;2.55;1.35;;;38.80;1.00;;;;;;5059966;28;20028;-80
2022/07/27 12:17:20;;;;;;;3.58;1.70;;;38.80;1.00;;;;;;5059928;28;20029;-80
2022/07/27 12:20:05;;;;;;;3.05;1.20;;;39.00;1.00;;;;;;5056598;28;20029;-80
2022/07/27 12:22:39;;;;;;;2.50;1.50;;;39.60;1.00;;;;;;5055793;28;20037;-80
2022/07/27 12:25:10;;;;;;;2.17;1.42;;;40.00;1.00;;;;;;5056772;28;20036;-80
2022/07/27 12:27:36;;;;;;;1.80;1.27;;;40.40;1.00;;;;;;5059816;28;20025;-80
2022/07/27 12:30:08;;;;;;;2.58;1.30;;;40.00;1.00;;;;;;5084420;28;20110;-81
2022/07/27 12:32:38;;;;;;;4.95;1.65;;;41.60;1.00;;;;;;5092529;28;20183;-81
2022/07/27 12:35:18;;;;;;;2.80;1.30;;;41.30;1.00;;;;;;5092573;28;20024;-81
2022/07/27 12:37:44;;;;;;;1.88;1.20;;;40.80;1.00;;;;;;5077408;28;20399;-81
2022/07/27 12:40:17;;;;;;;3.85;1.35;;;40.60;1.00;;;;;;5094056;28;20020;-81
2022/07/27 12:42:43;;;;;;;3.33;1.20;;;39.50;1.00;;;;;;5093683;28;20058;-81
2022/07/27 12:45:11;;;;;;;1.80;1.25;;;40.20;1.00;;;;;;5092021;28;20038;-81
2022/07/27 12:47:40;;;;;;;3.67;1.48;;;40.40;1.00;;;;;;5092321;28;20073;-81
2022/07/27 12:50:17;;;;;;;1.98;1.20;;;40.00;1.00;;;;;;5092317;28;20457;-81
2022/07/27 12:52:52;;;;;;;2.00;1.10;;;41.00;1.00;;;;;;5076644;28;20114;-81
2022/07/27 12:55:19;;;;;;;2.83;1.35;;;40.80;1.00;;;;;;5093043;28;20503;-81
2022/07/27 12:57:47;;;;;;;2.08;1.30;;;40.00;1.00;;;;;;5093735;28;20027;-81
2022/07/27 13:00:15;;;;;;;5.18;1.30;;;39.60;1.00;;;;;;5091978;28;20073;-80
2022/07/27 13:02:42;;;;;;;1.88;1.20;;;39.30;1.00;;;;;;5091880;28;20020;-81
2022/07/27 13:05:10;;;;;;;1.52;1.27;;;39.50;1.00;;;;;;5091697;28;20390;-80